createdAt,value
2022-12-03T00:04:06.534Z,23.25
2022-12-03T00:09:09.313Z,25.25
2022-12-03T00:14:12.066Z,21.25
2022-12-03T00:19:16.197Z,21.00
2022-12-03T00:24:19.136Z,22.25
2022-12-03T00:29:21.934Z,22.75
2022-12-03T00:34:26.041Z,22.75
2022-12-03T00:39:31.140Z,22.75
2022-12-03T00:44:33.941Z,21.50
2022-12-03T00:49:38.021Z,26.00
2022-12-03T00:54:40.796Z,19.75
2022-12-03T00:59:43.586Z,20.25
2022-12-03T01:04:47.861Z,23.25
2022-12-03T01:09:50.756Z,21.00
2022-12-03T01:14:54.508Z,18.00
2022-12-03T01:19:59.120Z,20.00
2022-12-03T01:25:02.064Z,19.50
2022-12-03T01:30:05.716Z,22.00
2022-12-03T01:35:10.385Z,21.25
2022-12-03T01:40:20.900Z,20.75
2022-12-03T01:45:25.476Z,17.75
2022-12-03T01:50:34.214Z,20.00
2022-12-03T01:55:38.100Z,18.00
2022-12-03T02:00:41.405Z,19.50
2022-12-03T02:05:45.573Z,17.50
2022-12-03T02:10:48.351Z,24.00
2022-12-03T02:15:51.176Z,17.50
2022-12-03T02:21:05.633Z,20.00
2022-12-03T02:26:09.994Z,19.25
2022-12-03T02:31:12.953Z,16.50
2022-12-03T02:36:16.095Z,21.00
2022-12-03T02:41:39.574Z,18.25
2022-12-03T02:46:42.607Z,16.00
2022-12-03T02:51:46.052Z,17.25
2022-12-03T02:56:50.401Z,15.25
2022-12-03T03:01:53.285Z,17.50
2022-12-03T03:06:56.154Z,19.75
2022-12-03T03:12:00.287Z,16.25
2022-12-03T03:17:04.515Z,17.75
2022-12-03T03:22:07.268Z,15.75
2022-12-03T03:27:11.744Z,16.75
2022-12-03T03:32:14.693Z,14.25
2022-12-03T03:37:17.837Z,15.50
2022-12-03T03:42:22.557Z,19.50
2022-12-03T03:47:25.704Z,15.50
2022-12-03T03:52:29.020Z,19.75
2022-12-03T03:57:33.549Z,16.00
2022-12-03T04:02:38.324Z,14.75
2022-12-03T04:07:41.069Z,17.25
2022-12-03T04:12:57.005Z,15.75
2022-12-03T04:18:17.319Z,15.00
2022-12-03T04:23:20.103Z,17.25
2022-12-03T04:28:41.857Z,16.00
2022-12-03T04:34:02.054Z,15.25
2022-12-03T04:39:05.048Z,15.00
2022-12-03T04:44:26.935Z,18.00
2022-12-03T04:49:29.908Z,19.25
2022-12-03T04:54:32.804Z,15.25
2022-12-03T04:59:37.752Z,14.25
2022-12-03T05:04:40.500Z,17.00
2022-12-03T05:09:43.293Z,16.75
2022-12-03T05:14:47.589Z,17.00
2022-12-03T05:20:07.895Z,19.00
2022-12-03T05:25:11.094Z,17.50
2022-12-03T05:30:15.711Z,16.00
2022-12-03T05:35:18.790Z,16.25
2022-12-03T05:40:22.129Z,17.00
2022-12-03T05:45:28.986Z,11.75
2022-12-03T05:50:35.363Z,11.00
2022-12-03T05:55:49.711Z,13.50
2022-12-03T06:00:53.768Z,10.50
2022-12-03T06:05:56.695Z,13.00
2022-12-03T06:10:59.455Z,14.00
2022-12-03T06:16:03.658Z,12.50
2022-12-03T06:21:06.827Z,16.00
2022-12-03T06:26:09.883Z,14.00
2022-12-03T06:31:14.201Z,15.00
2022-12-03T06:36:22.573Z,14.75
2022-12-03T06:41:25.970Z,11.00
2022-12-03T06:46:30.206Z,10.50
2022-12-03T06:51:33.036Z,12.25
2022-12-03T06:56:40.393Z,13.50
2022-12-03T07:01:49.104Z,13.25
2022-12-03T07:06:52.026Z,11.50
2022-12-03T07:11:54.751Z,15.50
2022-12-03T07:16:58.977Z,15.25
2022-12-03T07:22:02.106Z,10.75
2022-12-03T07:27:05.037Z,9.00
2022-12-03T07:32:09.229Z,14.00
2022-12-03T07:37:12.038Z,11.75
2022-12-03T07:42:16.365Z,14.50
2022-12-03T07:47:20.517Z,12.75
2022-12-03T07:52:23.411Z,12.00
2022-12-03T07:57:26.210Z,10.25
2022-12-03T08:02:30.373Z,11.25
2022-12-03T08:07:33.276Z,10.75
2022-12-03T08:12:41.736Z,18.00
2022-12-03T08:17:48.384Z,25.50
2022-12-03T08:22:53.524Z,25.00
2022-12-03T08:28:03.563Z,25.25
2022-12-03T08:33:18.474Z,25.75
2022-12-03T08:38:23.302Z,19.75
2022-12-03T08:43:28.121Z,23.25
2022-12-03T08:48:33.698Z,25.25
2022-12-03T08:53:38.117Z,19.50
2022-12-03T08:58:42.467Z,22.75
2022-12-03T09:03:51.597Z,19.50
2022-12-03T09:08:54.406Z,20.25
2022-12-03T09:13:57.151Z,21.75
2022-12-03T09:19:01.272Z,21.25
2022-12-03T09:24:04.207Z,17.00
2022-12-03T09:29:11.848Z,15.75
2022-12-03T09:34:16.912Z,20.75
2022-12-03T09:39:19.737Z,17.25
2022-12-03T09:44:22.857Z,16.50
2022-12-03T09:49:28.872Z,19.00
2022-12-03T09:54:33.246Z,17.00
2022-12-03T09:59:36.054Z,18.50
2022-12-03T10:04:40.203Z,14.50
2022-12-03T10:09:43.116Z,16.50
2022-12-03T10:14:45.922Z,15.50
2022-12-03T10:19:50.490Z,20.25
2022-12-03T10:25:07.627Z,16.25
2022-12-03T10:30:18.371Z,18.50
2022-12-03T10:35:24.397Z,18.75
2022-12-03T10:40:31.520Z,18.75
2022-12-03T10:45:34.321Z,20.00
2022-12-03T10:50:38.781Z,17.00
2022-12-03T10:55:44.198Z,18.25
2022-12-03T11:00:47.392Z,19.75
2022-12-03T11:05:53.056Z,16.75
2022-12-03T11:11:00.839Z,13.50
2022-12-03T11:16:05.705Z,12.50
2022-12-03T11:21:12.193Z,18.25
2022-12-03T11:26:19.256Z,15.50
2022-12-03T11:31:40.270Z,15.00
2022-12-03T11:37:16.469Z,14.50
2022-12-03T11:42:41.136Z,13.75
2022-12-03T11:47:46.669Z,16.00
2022-12-03T11:52:54.467Z,13.75
2022-12-03T11:58:04.940Z,17.00
2022-12-03T12:03:23.434Z,15.50
2022-12-03T12:08:26.250Z,39.40
2022-12-03T12:13:50.254Z,35.60
2022-12-03T12:18:55.421Z,32.40
2022-12-03T12:24:18.921Z,35.00
2022-12-03T12:29:23.229Z,31.80
2022-12-03T12:34:26.452Z,29.60
2022-12-03T12:39:29.624Z,26.00
2022-12-03T12:44:33.944Z,24.75
2022-12-03T12:49:36.717Z,24.00
2022-12-03T12:54:39.565Z,28.25
2022-12-03T12:59:43.698Z,29.20
2022-12-03T13:04:46.515Z,27.00
2022-12-03T13:09:54.756Z,26.00
2022-12-03T13:15:01.219Z,24.75
2022-12-03T13:20:15.488Z,21.50
2022-12-03T13:25:58.247Z,26.50
2022-12-03T13:31:11.002Z,24.50
2022-12-03T13:36:16.924Z,22.25
2022-12-03T13:41:39.462Z,21.50
2022-12-03T13:46:44.116Z,20.75
2022-12-03T13:51:47.273Z,20.25
2022-12-03T13:56:50.968Z,21.25
2022-12-03T14:01:55.377Z,19.25
2022-12-03T14:06:58.260Z,19.50
2022-12-03T14:12:18.740Z,21.75
2022-12-03T14:17:23.015Z,17.50
2022-12-03T14:22:25.993Z,19.50
2022-12-03T14:27:28.974Z,26.25
2022-12-03T14:32:33.187Z,20.00
2022-12-03T14:37:36.121Z,23.75
2022-12-03T14:42:38.878Z,19.25
2022-12-03T14:47:43.141Z,19.00
2022-12-03T14:53:01.544Z,22.50
2022-12-03T14:58:04.827Z,23.50
2022-12-03T15:03:09.040Z,19.75
2022-12-03T15:08:11.875Z,24.00
2022-12-03T15:13:14.787Z,18.75
2022-12-03T15:18:18.909Z,17.75
2022-12-03T15:23:22.015Z,22.25
2022-12-03T15:28:24.854Z,21.00
2022-12-03T15:33:29.071Z,20.50
2022-12-03T15:38:31.832Z,19.75
2022-12-03T15:43:35.189Z,20.00
2022-12-03T15:48:39.455Z,22.67
2022-12-03T15:53:45.979Z,19.25
2022-12-03T15:58:49.171Z,17.50
2022-12-03T16:03:53.706Z,22.75
2022-12-03T16:08:56.521Z,17.75
2022-12-03T16:13:59.632Z,20.25
2022-12-03T16:19:04.277Z,16.50
2022-12-03T16:24:07.426Z,21.00
2022-12-03T16:29:10.261Z,19.75
2022-12-03T16:34:14.635Z,22.00
2022-12-03T16:39:17.402Z,22.25
2022-12-03T16:44:32.494Z,18.75
2022-12-03T16:49:36.692Z,20.75
2022-12-03T16:54:39.741Z,22.25
2022-12-03T16:59:42.848Z,23.50
2022-12-03T17:04:46.990Z,21.50
2022-12-03T17:09:50.770Z,24.40
2022-12-03T17:14:53.670Z,22.00
2022-12-03T17:19:58.104Z,21.60
2022-12-03T17:25:01.072Z,24.20
2022-12-03T17:30:09.329Z,25.80
2022-12-03T17:35:13.672Z,22.25
2022-12-03T17:40:17.721Z,23.60
2022-12-03T17:45:20.731Z,24.40
2022-12-03T17:50:25.033Z,23.40
2022-12-03T17:55:36.978Z,25.80
2022-12-03T18:00:44.056Z,22.80
2022-12-03T18:05:48.611Z,24.80
2022-12-03T18:10:51.520Z,23.00
2022-12-03T18:15:54.520Z,22.00
2022-12-03T18:21:02.038Z,19.80
2022-12-03T18:26:05.337Z,21.60
2022-12-03T18:31:14.586Z,22.25
2022-12-03T18:36:21.828Z,21.50
2022-12-03T18:41:25.550Z,22.60
2022-12-03T18:46:52.533Z,22.75
2022-12-03T18:51:59.066Z,27.25
2022-12-03T18:57:02.646Z,21.75
2022-12-03T19:02:06.073Z,20.75
2022-12-03T19:07:10.904Z,22.25
2022-12-03T19:12:14.855Z,19.50
2022-12-03T19:17:17.776Z,24.50
2022-12-03T19:22:22.109Z,22.25
2022-12-03T19:27:24.970Z,22.00
2022-12-03T19:32:27.974Z,21.25
2022-12-03T19:37:34.496Z,22.75
2022-12-03T19:42:37.322Z,20.50
2022-12-03T19:47:40.343Z,24.25
2022-12-03T19:52:44.807Z,26.20
2022-12-03T19:57:48.153Z,22.75
2022-12-03T20:02:51.163Z,25.25
2022-12-03T20:07:55.774Z,32.60
2022-12-03T20:12:58.795Z,25.50
2022-12-03T20:18:01.575Z,24.75
2022-12-03T20:23:05.938Z,26.50
2022-12-03T20:28:08.738Z,28.25
2022-12-03T20:33:11.798Z,27.60
2022-12-03T20:38:16.168Z,31.40
2022-12-03T20:43:19.700Z,28.20
2022-12-03T20:48:22.730Z,30.00
2022-12-03T20:53:26.984Z,32.80
2022-12-03T20:58:31.096Z,25.20
2022-12-03T21:03:34.506Z,28.40
2022-12-03T21:08:42.143Z,33.75
2022-12-03T21:13:46.419Z,27.40
2022-12-03T21:18:49.469Z,27.50
2022-12-03T21:23:54.507Z,26.00
2022-12-03T21:28:57.361Z,31.00
2022-12-03T21:34:00.449Z,24.80
2022-12-03T21:39:05.337Z,29.60
2022-12-03T21:44:08.223Z,31.20
2022-12-03T21:49:11.080Z,31.60
2022-12-03T21:54:15.566Z,27.50
2022-12-03T21:59:18.407Z,27.75
2022-12-03T22:04:21.479Z,28.00
2022-12-03T22:09:26.831Z,27.75
2022-12-03T22:14:30.241Z,25.60
2022-12-03T22:19:33.160Z,27.20
2022-12-03T22:24:38.585Z,24.75
2022-12-03T22:29:41.683Z,28.75
2022-12-03T22:34:44.457Z,23.75
2022-12-03T22:39:48.644Z,24.00
2022-12-03T22:44:51.784Z,23.75
2022-12-03T22:49:54.811Z,24.25
2022-12-03T22:54:59.249Z,27.60
2022-12-03T23:00:02.050Z,26.75
2022-12-03T23:05:05.840Z,28.00
2022-12-03T23:10:11.185Z,23.75
2022-12-03T23:15:14.250Z,26.25
2022-12-03T23:20:17.130Z,32.25
2022-12-03T23:25:22.300Z,21.75
2022-12-03T23:30:25.348Z,23.75
2022-12-03T23:35:28.189Z,23.25
2022-12-03T23:40:32.343Z,23.75
2022-12-03T23:45:35.387Z,20.75
2022-12-03T23:50:41.216Z,24.00
2022-12-03T23:55:45.785Z,23.25
